createdAt,value
2022-12-08T00:02:34.136Z,35.50
2022-12-08T00:06:03.389Z,35.50
2022-12-08T00:09:25.042Z,35.60
2022-12-08T00:12:32.824Z,35.50
2022-12-08T00:15:40.742Z,35.30
2022-12-08T00:18:50.231Z,35.40
2022-12-08T00:21:58.298Z,35.40
2022-12-08T00:25:07.287Z,35.40
2022-12-08T00:28:15.352Z,35.40
2022-12-08T00:31:23.632Z,35.50
2022-12-08T00:34:33.311Z,35.90
2022-12-08T00:37:41.546Z,35.50
2022-12-08T00:40:50.257Z,35.70
2022-12-08T00:43:58.399Z,35.50
2022-12-08T00:47:06.971Z,35.60
2022-12-08T00:50:16.351Z,36.00
2022-12-08T00:53:24.449Z,35.50
2022-12-08T00:56:32.621Z,35.50
2022-12-08T00:59:41.099Z,35.60
2022-12-08T01:02:49.174Z,35.30
2022-12-08T01:05:58.665Z,35.20
2022-12-08T01:09:07.079Z,35.50
2022-12-08T01:12:15.134Z,35.50
2022-12-08T01:15:23.264Z,35.10
2022-12-08T01:18:31.462Z,35.00
2022-12-08T01:21:40.722Z,35.00
2022-12-08T01:24:48.774Z,35.10
2022-12-08T01:27:56.512Z,35.40
2022-12-08T01:31:04.764Z,35.10
2022-12-08T01:34:13.008Z,34.90
2022-12-08T01:37:22.423Z,35.00
2022-12-08T01:40:30.274Z,34.80
2022-12-08T01:44:01.516Z,34.60
2022-12-08T01:47:09.730Z,34.70
2022-12-08T01:50:18.027Z,35.40
2022-12-08T01:53:29.154Z,34.70
2022-12-08T01:56:41.817Z,34.70
2022-12-08T01:59:52.594Z,34.50
2022-12-08T02:03:01.515Z,34.50
2022-12-08T02:06:09.773Z,34.60
2022-12-08T02:09:19.150Z,34.70
2022-12-08T02:12:27.397Z,34.40
2022-12-08T02:15:39.928Z,34.60
2022-12-08T02:19:22.509Z,34.60
2022-12-08T02:22:28.173Z,34.50
2022-12-08T02:25:44.201Z,34.80
2022-12-08T02:29:15.428Z,34.40
2022-12-08T02:32:35.277Z,34.50
2022-12-08T02:35:47.132Z,34.50
2022-12-08T02:39:00.128Z,34.50
2022-12-08T02:42:11.964Z,34.60
2022-12-08T02:45:22.761Z,34.40
2022-12-08T02:48:30.849Z,34.40
2022-12-08T02:51:40.121Z,34.30
2022-12-08T02:54:50.453Z,34.40
2022-12-08T02:58:23.517Z,34.40
2022-12-08T03:01:50.029Z,34.30
2022-12-08T03:05:01.316Z,34.30
2022-12-08T03:08:13.684Z,34.30
2022-12-08T03:11:23.137Z,34.30
2022-12-08T03:14:31.154Z,34.30
2022-12-08T03:17:39.165Z,34.30
2022-12-08T03:20:47.422Z,34.40
2022-12-08T03:23:56.875Z,34.20
2022-12-08T03:27:05.584Z,34.50
2022-12-08T03:30:13.967Z,34.20
2022-12-08T03:33:24.560Z,34.30
2022-12-08T03:36:32.829Z,34.60
2022-12-08T03:39:42.432Z,34.60
2022-12-08T03:42:50.598Z,34.20
2022-12-08T03:45:58.732Z,34.10
2022-12-08T03:49:07.031Z,34.10
2022-12-08T03:52:15.145Z,34.00
2022-12-08T03:55:24.720Z,34.10
2022-12-08T03:58:37.242Z,34.10
2022-12-08T04:01:45.448Z,34.40
2022-12-08T04:04:53.371Z,34.40
2022-12-08T04:08:01.839Z,34.40
2022-12-08T04:11:11.141Z,34.70
2022-12-08T04:14:19.184Z,34.40
2022-12-08T04:17:27.848Z,34.60
2022-12-08T04:20:35.745Z,34.00
2022-12-08T04:23:43.608Z,34.20
2022-12-08T04:26:53.089Z,33.90
2022-12-08T04:30:01.451Z,33.70
2022-12-08T04:33:09.664Z,33.60
2022-12-08T04:36:17.504Z,34.20
2022-12-08T04:39:25.695Z,33.50
2022-12-08T04:42:35.060Z,33.60
2022-12-08T04:45:43.701Z,33.50
2022-12-08T04:48:51.699Z,33.60
2022-12-08T04:51:59.765Z,33.50
2022-12-08T04:55:08.190Z,33.40
2022-12-08T04:58:19.347Z,33.40
2022-12-08T05:01:27.530Z,34.00
2022-12-08T05:04:35.553Z,33.30
2022-12-08T05:07:43.675Z,33.40
2022-12-08T05:10:51.420Z,33.40
2022-12-08T05:14:00.891Z,33.50
2022-12-08T05:17:09.896Z,33.50
2022-12-08T05:20:18.051Z,33.40
2022-12-08T05:23:26.138Z,33.50
2022-12-08T05:26:33.971Z,33.50
2022-12-08T05:29:43.432Z,33.40
2022-12-08T05:32:51.277Z,33.30
2022-12-08T05:35:59.335Z,33.40
2022-12-08T05:39:07.310Z,33.50
2022-12-08T05:42:16.176Z,33.40
2022-12-08T05:45:27.789Z,33.40
2022-12-08T05:48:35.637Z,33.50
2022-12-08T05:51:43.871Z,33.70
2022-12-08T05:54:51.888Z,33.80
2022-12-08T05:58:06.137Z,34.60
2022-12-08T06:01:22.180Z,37.20
2022-12-08T06:04:30.169Z,37.20
2022-12-08T06:07:38.595Z,37.00
2022-12-08T06:10:46.797Z,36.60
2022-12-08T06:13:55.956Z,36.20
2022-12-08T06:17:05.293Z,36.50
2022-12-08T06:20:13.516Z,36.40
2022-12-08T06:23:21.540Z,36.50
2022-12-08T06:26:29.877Z,36.60
2022-12-08T06:29:37.778Z,36.50
2022-12-08T06:32:47.062Z,36.90
2022-12-08T06:35:55.129Z,36.60
2022-12-08T06:39:03.049Z,36.40
2022-12-08T06:42:28.284Z,36.30
2022-12-08T06:45:36.314Z,36.00
2022-12-08T06:48:45.871Z,36.60
2022-12-08T06:51:53.948Z,36.50
2022-12-08T06:55:02.034Z,36.10
2022-12-08T06:58:10.144Z,36.10
2022-12-08T07:01:18.456Z,36.50
2022-12-08T07:04:27.788Z,36.00
2022-12-08T07:07:35.553Z,35.90
2022-12-08T07:10:43.489Z,35.60
2022-12-08T07:13:51.763Z,35.70
2022-12-08T07:16:59.698Z,35.60
2022-12-08T07:20:09.893Z,35.20
2022-12-08T07:23:17.980Z,34.80
2022-12-08T07:26:25.692Z,34.90
2022-12-08T07:29:33.513Z,34.80
2022-12-08T07:32:41.592Z,35.00
2022-12-08T07:35:56.604Z,34.90
2022-12-08T07:39:04.612Z,34.50
2022-12-08T07:42:12.433Z,34.30
2022-12-08T07:45:20.408Z,34.90
2022-12-08T07:48:28.411Z,34.60
2022-12-08T07:51:37.832Z,34.30
2022-12-08T07:54:45.624Z,34.60
2022-12-08T07:57:53.431Z,34.40
2022-12-08T08:01:01.463Z,34.40
2022-12-08T08:04:09.451Z,34.10
2022-12-08T08:07:18.625Z,34.70
2022-12-08T08:10:26.764Z,34.20
2022-12-08T08:13:34.487Z,34.20
2022-12-08T08:16:46.715Z,34.10
2022-12-08T08:19:54.732Z,33.80
2022-12-08T08:23:03.959Z,33.90
2022-12-08T08:26:12.021Z,33.90
2022-12-08T08:29:20.024Z,33.90
2022-12-08T08:32:28.125Z,33.60
2022-12-08T08:35:36.286Z,33.50
2022-12-08T08:38:45.329Z,33.40
2022-12-08T08:41:53.365Z,33.30
2022-12-08T08:45:01.026Z,33.10
2022-12-08T08:48:08.717Z,33.10
2022-12-08T08:51:16.713Z,32.40
2022-12-08T08:54:25.829Z,33.30
2022-12-08T08:57:33.516Z,33.00
2022-12-08T09:00:41.268Z,33.20
2022-12-08T09:03:49.196Z,32.80
2022-12-08T09:06:57.022Z,32.70
2022-12-08T09:10:08.058Z,32.90
2022-12-08T09:13:16.042Z,32.80
2022-12-08T09:16:24.658Z,33.20
2022-12-08T09:19:32.917Z,32.90
2022-12-08T09:22:40.949Z,32.90
2022-12-08T09:25:50.408Z,32.80
2022-12-08T09:28:58.655Z,33.10
2022-12-08T09:32:06.867Z,32.90
2022-12-08T09:35:14.997Z,33.50
2022-12-08T09:38:23.001Z,33.30
2022-12-08T09:41:38.771Z,32.90
2022-12-08T09:44:54.669Z,33.40
2022-12-08T09:48:06.272Z,33.50
2022-12-08T09:51:15.495Z,33.40
2022-12-08T09:54:25.151Z,33.10
2022-12-08T09:57:36.333Z,33.30
2022-12-08T10:00:44.415Z,33.50
2022-12-08T10:03:52.513Z,33.40
2022-12-08T10:07:04.645Z,33.10
2022-12-08T10:10:20.896Z,33.60
2022-12-08T10:13:34.536Z,33.20
2022-12-08T10:16:44.878Z,33.50
2022-12-08T10:19:55.143Z,33.00
2022-12-08T10:23:06.941Z,33.00
2022-12-08T10:26:16.560Z,32.90
2022-12-08T10:29:27.530Z,33.00
2022-12-08T10:32:35.909Z,32.90
2022-12-08T10:35:45.507Z,33.00
2022-12-08T10:38:53.467Z,33.00
2022-12-08T10:42:03.074Z,32.90
2022-12-08T10:45:30.604Z,32.70
2022-12-08T10:48:38.479Z,32.80
2022-12-08T10:51:46.462Z,33.10
2022-12-08T10:54:54.772Z,32.80
2022-12-08T10:58:02.765Z,33.20
2022-12-08T11:01:14.571Z,33.20
2022-12-08T11:04:23.330Z,32.90
2022-12-08T11:07:31.228Z,33.70
2022-12-08T11:10:43.718Z,32.90
2022-12-08T11:13:52.183Z,33.40
2022-12-08T11:17:06.497Z,33.20
2022-12-08T11:20:22.313Z,33.20
2022-12-08T11:23:30.757Z,33.50
2022-12-08T11:26:38.518Z,33.50
2022-12-08T11:29:46.866Z,33.30
2022-12-08T11:32:57.566Z,32.90
2022-12-08T11:36:06.870Z,33.50
2022-12-08T11:39:14.950Z,32.80
2022-12-08T11:42:25.199Z,33.60
2022-12-08T11:45:34.357Z,32.70
2022-12-08T11:48:46.312Z,32.50
2022-12-08T11:51:55.829Z,32.30
2022-12-08T11:55:05.682Z,32.50
2022-12-08T11:58:15.933Z,32.30
2022-12-08T12:01:24.952Z,32.50
2022-12-08T12:04:36.887Z,32.30
2022-12-08T12:07:56.122Z,32.50
2022-12-08T12:11:08.966Z,33.00
2022-12-08T12:14:23.742Z,32.30
2022-12-08T12:17:37.412Z,32.80
2022-12-08T12:20:49.953Z,32.80
2022-12-08T12:23:58.357Z,33.40
2022-12-08T12:27:07.689Z,33.10
2022-12-08T12:30:21.248Z,33.00
2022-12-08T12:33:29.136Z,33.00
2022-12-08T12:36:50.841Z,33.20
2022-12-08T12:40:00.349Z,32.80
2022-12-08T12:43:23.711Z,32.70
2022-12-08T12:46:57.724Z,32.40
2022-12-08T12:50:08.007Z,32.70
2022-12-08T12:53:53.096Z,32.80
2022-12-08T13:02:48.828Z,32.60
2022-12-08T13:05:56.888Z,32.70
2022-12-08T13:09:04.725Z,32.70
2022-12-08T13:12:20.982Z,33.00
2022-12-08T13:15:34.464Z,32.90
2022-12-08T13:18:44.328Z,32.70
2022-12-08T13:21:52.566Z,32.80
2022-12-08T13:25:36.821Z,32.60
2022-12-08T13:29:23.030Z,32.90
2022-12-08T13:36:29.995Z,33.00
2022-12-08T13:39:42.516Z,32.90
2022-12-08T13:42:56.393Z,32.80
2022-12-08T13:47:02.752Z,32.50
2022-12-08T13:54:16.497Z,32.60
2022-12-08T13:57:03.945Z,32.70
2022-12-08T14:00:15.584Z,32.50
2022-12-08T14:03:23.762Z,33.00
2022-12-08T14:06:32.812Z,32.80
2022-12-08T14:09:42.372Z,33.10
2022-12-08T14:12:57.728Z,33.20
2022-12-08T14:16:05.853Z,32.60
2022-12-08T14:19:17.840Z,32.90
2022-12-08T14:22:26.194Z,33.00
2022-12-08T14:25:35.568Z,33.10
2022-12-08T14:28:45.185Z,32.90
2022-12-08T14:31:54.627Z,33.30
2022-12-08T14:35:03.607Z,32.80
2022-12-08T14:38:14.351Z,32.40
2022-12-08T14:41:28.129Z,32.50
2022-12-08T14:44:37.856Z,32.40
2022-12-08T14:47:46.899Z,32.40
2022-12-08T14:51:06.642Z,32.60
2022-12-08T14:54:15.185Z,32.80
2022-12-08T14:57:24.660Z,32.80
2022-12-08T15:00:32.709Z,32.60
2022-12-08T15:03:42.755Z,32.60
2022-12-08T15:07:00.817Z,32.30
2022-12-08T15:10:19.771Z,32.20
2022-12-08T15:13:28.774Z,32.50
2022-12-08T15:16:40.162Z,32.50
2022-12-08T15:19:56.425Z,32.20
2022-12-08T15:23:04.268Z,32.10
2022-12-08T15:26:13.173Z,32.10
2022-12-08T15:29:23.859Z,32.00
2022-12-08T15:32:31.810Z,32.10
2022-12-08T15:35:41.122Z,31.90
2022-12-08T15:38:49.370Z,32.00
2022-12-08T15:41:57.528Z,32.00
2022-12-08T15:45:07.608Z,32.00
2022-12-08T15:48:18.363Z,32.00
2022-12-08T15:51:26.051Z,32.50
2022-12-08T15:54:34.276Z,32.00
2022-12-08T15:58:44.635Z,32.00
2022-12-08T16:01:11.547Z,31.90
2022-12-08T16:05:00.169Z,32.20
2022-12-08T16:07:52.890Z,31.80
2022-12-08T16:15:47.311Z,32.10
2022-12-08T16:18:17.350Z,32.20
2022-12-08T16:24:55.298Z,31.90
2022-12-08T16:28:29.384Z,32.00
2022-12-08T16:31:34.441Z,32.00
2022-12-08T16:34:43.962Z,32.10
2022-12-08T16:37:52.025Z,32.00
2022-12-08T16:41:17.549Z,32.20
2022-12-08T16:44:25.450Z,31.90
2022-12-08T16:47:33.696Z,32.10
2022-12-08T16:50:45.160Z,32.10
2022-12-08T16:53:53.193Z,32.10
2022-12-08T16:57:01.107Z,32.80
2022-12-08T17:00:10.895Z,32.10
2022-12-08T17:03:18.779Z,32.00
2022-12-08T17:06:27.946Z,32.00
2022-12-08T17:09:36.117Z,32.50
2022-12-08T17:12:44.203Z,32.00
2022-12-08T17:15:52.380Z,32.10
2022-12-08T17:19:00.535Z,32.10
2022-12-08T17:22:09.923Z,32.10
2022-12-08T17:25:18.137Z,31.80
2022-12-08T17:28:44.243Z,31.90
2022-12-08T17:31:54.521Z,32.10
2022-12-08T17:35:02.674Z,32.40
2022-12-08T17:38:11.997Z,32.40
2022-12-08T17:41:19.674Z,32.30
2022-12-08T17:44:28.132Z,32.30
2022-12-08T17:47:36.293Z,32.80
2022-12-08T17:50:45.238Z,32.40
2022-12-08T17:53:54.451Z,32.50
2022-12-08T17:57:02.804Z,32.50
2022-12-08T18:00:11.878Z,32.50
2022-12-08T18:03:22.568Z,32.80
2022-12-08T18:06:31.443Z,32.70
2022-12-08T18:09:40.676Z,32.70
2022-12-08T18:12:48.838Z,32.70
2022-12-08T18:15:56.581Z,33.20
2022-12-08T18:19:04.378Z,32.90
2022-12-08T18:22:12.281Z,33.20
2022-12-08T18:25:21.984Z,33.10
2022-12-08T18:28:30.225Z,32.90
2022-12-08T18:31:38.423Z,32.70
2022-12-08T18:34:46.594Z,32.70
2022-12-08T18:37:54.870Z,32.80
2022-12-08T18:41:07.947Z,33.00
2022-12-08T18:44:15.923Z,33.00
2022-12-08T18:47:23.992Z,32.60
2022-12-08T18:50:32.009Z,32.60
2022-12-08T18:53:40.167Z,32.60
2022-12-08T18:56:49.596Z,32.60
2022-12-08T18:59:57.548Z,32.50
2022-12-08T19:03:05.556Z,32.50
2022-12-08T19:06:13.840Z,32.30
2022-12-08T19:09:22.309Z,32.20
2022-12-08T19:12:31.911Z,32.30
2022-12-08T19:15:39.977Z,32.80
2022-12-08T19:18:47.839Z,32.30
2022-12-08T19:21:55.993Z,32.40
2022-12-08T19:25:04.751Z,32.50
2022-12-08T19:28:13.959Z,32.50
2022-12-08T19:31:22.043Z,32.40
2022-12-08T19:34:29.984Z,32.40
2022-12-08T19:37:38.084Z,32.30
2022-12-08T19:41:03.613Z,32.30
2022-12-08T19:45:15.621Z,32.40
2022-12-08T19:48:23.719Z,32.60
2022-12-08T19:51:31.933Z,32.50
2022-12-08T19:54:40.081Z,32.50
2022-12-08T19:57:47.959Z,32.60
2022-12-08T20:00:57.295Z,32.50
2022-12-08T20:04:05.577Z,32.40
2022-12-08T20:07:13.941Z,32.50
2022-12-08T20:10:23.036Z,32.30
2022-12-08T20:13:45.481Z,32.30
2022-12-08T20:16:54.891Z,32.20
2022-12-08T20:20:07.079Z,32.20
2022-12-08T20:23:16.382Z,32.10
2022-12-08T20:26:24.601Z,32.60
2022-12-08T20:29:32.953Z,32.00
2022-12-08T20:32:42.196Z,31.90
2022-12-08T20:35:52.503Z,32.10
2022-12-08T20:39:03.109Z,31.90
2022-12-08T20:42:13.477Z,32.00
2022-12-08T20:45:21.714Z,32.10
2022-12-08T20:48:31.301Z,32.10
2022-12-08T20:51:20.011Z,32.10
2022-12-08T20:54:09.650Z,32.10
2022-12-08T20:56:57.277Z,32.10
2022-12-08T20:59:45.602Z,32.00
2022-12-08T21:02:33.592Z,32.00
2022-12-08T21:05:22.920Z,32.20
2022-12-08T21:08:11.182Z,32.00
2022-12-08T21:10:59.328Z,32.00
2022-12-08T21:13:47.267Z,32.00
2022-12-08T21:16:35.164Z,31.90
2022-12-08T21:19:23.006Z,32.30
2022-12-08T21:22:12.590Z,32.00
2022-12-08T21:25:00.515Z,31.90
2022-12-08T21:27:48.668Z,31.90
2022-12-08T21:30:36.874Z,31.90
2022-12-08T21:33:25.037Z,32.60
2022-12-08T21:36:14.645Z,31.90
2022-12-08T21:39:04.788Z,31.70
2022-12-08T21:42:10.154Z,31.90
2022-12-08T21:44:58.205Z,31.80
2022-12-08T21:47:46.363Z,32.30
2022-12-08T21:50:35.221Z,31.90
2022-12-08T21:53:22.853Z,31.70
2022-12-08T21:56:12.653Z,31.70
2022-12-08T21:59:00.556Z,31.70
2022-12-08T22:01:48.692Z,31.70
2022-12-08T22:04:37.157Z,31.60
2022-12-08T22:07:25.434Z,31.60
2022-12-08T22:10:14.742Z,31.50
2022-12-08T22:13:04.329Z,31.50
2022-12-08T22:15:57.346Z,31.80
2022-12-08T22:18:45.190Z,31.60
2022-12-08T22:21:33.228Z,31.50
2022-12-08T22:24:21.122Z,31.50
2022-12-08T22:27:28.220Z,31.40
2022-12-08T22:30:39.361Z,31.50
2022-12-08T22:33:48.182Z,31.50
2022-12-08T22:36:56.172Z,31.60
2022-12-08T22:40:04.587Z,31.60
2022-12-08T22:43:12.671Z,31.50
2022-12-08T22:46:23.365Z,31.60
2022-12-08T22:49:31.690Z,31.70
2022-12-08T22:52:40.165Z,31.80
2022-12-08T22:55:48.026Z,31.90
2022-12-08T22:58:56.203Z,31.60
2022-12-08T23:02:05.596Z,31.80
2022-12-08T23:05:13.761Z,31.80
2022-12-08T23:08:21.996Z,31.70
2022-12-08T23:11:30.741Z,31.70
2022-12-08T23:14:38.770Z,31.90
2022-12-08T23:17:48.115Z,31.70
2022-12-08T23:20:55.945Z,31.80
2022-12-08T23:24:03.780Z,31.60
2022-12-08T23:27:11.858Z,32.50
2022-12-08T23:30:19.893Z,31.60
2022-12-08T23:33:30.298Z,31.70
2022-12-08T23:36:38.180Z,31.60
2022-12-08T23:39:46.433Z,31.60
2022-12-08T23:42:54.443Z,31.60
2022-12-08T23:46:02.289Z,31.60
2022-12-08T23:49:11.932Z,31.80
2022-12-08T23:52:20.229Z,31.90
2022-12-08T23:55:28.243Z,31.70
2022-12-08T23:58:36.368Z,31.80
